createdAt,value
2022-10-23T00:03:30.777Z,13.75
2022-10-23T00:08:35.278Z,13.66
2022-10-23T00:13:41.492Z,13.67
2022-10-23T00:18:46.880Z,13.67
2022-10-23T00:23:51.776Z,13.67
2022-10-23T00:28:56.503Z,13.68
2022-10-23T00:34:00.723Z,13.64
2022-10-23T00:39:06.006Z,13.62
2022-10-23T00:44:31.238Z,13.63
2022-10-23T00:49:35.577Z,13.70
2022-10-23T00:54:51.602Z,13.75
2022-10-23T00:59:55.872Z,13.76
2022-10-23T01:05:00.526Z,13.75
2022-10-23T01:10:35.302Z,13.65
2022-10-23T01:15:50.213Z,13.61
2022-10-23T01:21:00.455Z,13.59
2022-10-23T01:26:36.515Z,13.58
2022-10-23T01:31:46.422Z,13.62
2022-10-23T01:36:53.129Z,13.61
2022-10-23T01:42:04.716Z,13.56
2022-10-23T01:47:12.382Z,13.53
2022-10-23T01:52:19.138Z,13.51
2022-10-23T01:57:27.244Z,13.55
2022-10-23T02:02:34.160Z,13.62
2022-10-23T02:07:39.634Z,13.67
2022-10-23T02:13:04.684Z,13.71
2022-10-23T02:18:23.738Z,13.73
2022-10-23T02:23:37.168Z,13.73
2022-10-23T02:28:47.931Z,13.74
2022-10-23T02:33:51.938Z,13.79
2022-10-23T02:38:56.106Z,13.88
2022-10-23T02:44:05.247Z,13.93
2022-10-23T02:49:43.995Z,13.87
2022-10-23T02:55:15.914Z,13.86
2022-10-23T03:00:22.964Z,13.81
2022-10-23T03:05:29.439Z,13.82
2022-10-23T03:10:33.667Z,13.80
2022-10-23T03:15:38.527Z,13.75
2022-10-23T03:20:43.644Z,13.73
2022-10-23T03:25:47.541Z,13.70
2022-10-23T03:30:50.970Z,13.70
2022-10-23T03:35:55.462Z,13.73
2022-10-23T03:40:58.845Z,13.75
2022-10-23T03:46:03.210Z,13.75
2022-10-23T03:51:09.032Z,13.77
2022-10-23T03:56:13.905Z,13.72
2022-10-23T04:01:18.697Z,13.75
2022-10-23T04:06:23.311Z,13.74
2022-10-23T04:11:28.359Z,13.73
2022-10-23T04:16:32.663Z,13.74
2022-10-23T04:21:36.863Z,13.79
2022-10-23T04:26:41.864Z,13.82
2022-10-23T04:31:46.049Z,13.89
2022-10-23T04:36:50.466Z,13.93
2022-10-23T04:41:55.671Z,13.99
2022-10-23T04:46:59.748Z,13.95
2022-10-23T04:52:04.431Z,13.84
2022-10-23T04:57:08.102Z,13.76
2022-10-23T05:02:12.455Z,13.80
2022-10-23T05:07:18.275Z,13.86
2022-10-23T05:12:23.219Z,13.86
2022-10-23T05:17:35.500Z,13.90
2022-10-23T05:22:42.237Z,13.96
2022-10-23T05:27:45.836Z,14.00
2022-10-23T05:32:50.737Z,13.98
2022-10-23T05:37:56.489Z,13.89
2022-10-23T05:43:00.547Z,13.81
2022-10-23T05:48:16.824Z,13.79
2022-10-23T05:53:27.107Z,13.84
2022-10-23T05:58:31.219Z,13.90
2022-10-23T06:03:36.985Z,13.92
2022-10-23T06:08:41.264Z,13.86
2022-10-23T06:13:47.034Z,13.83
2022-10-23T06:18:51.389Z,13.89
2022-10-23T06:23:56.532Z,13.95
2022-10-23T06:29:00.977Z,13.98
2022-10-23T06:34:04.390Z,13.91
2022-10-23T06:39:08.841Z,13.84
2022-10-23T06:44:13.012Z,13.85
2022-10-23T06:49:17.092Z,13.85
2022-10-23T06:54:21.107Z,13.92
2022-10-23T06:59:26.128Z,14.06
2022-10-23T07:04:30.639Z,14.22
2022-10-23T07:09:36.684Z,14.28
2022-10-23T07:14:40.524Z,14.37
2022-10-23T07:19:44.892Z,14.46
2022-10-23T07:24:48.490Z,14.64
2022-10-23T07:29:53.436Z,14.75
2022-10-23T07:34:57.189Z,14.74
2022-10-23T07:40:01.546Z,14.86
2022-10-23T07:45:07.828Z,14.95
2022-10-23T07:50:12.402Z,15.06
2022-10-23T07:55:17.279Z,15.12
2022-10-23T08:00:21.153Z,15.07
2022-10-23T08:05:24.853Z,14.94
2022-10-23T08:10:28.656Z,14.68
2022-10-23T08:15:32.704Z,14.61
2022-10-23T08:20:41.317Z,14.51
2022-10-23T08:25:45.514Z,14.39
2022-10-23T08:30:49.460Z,14.34
2022-10-23T08:35:53.181Z,14.31
2022-10-23T08:40:56.635Z,14.32
2022-10-23T08:46:09.652Z,14.49
2022-10-23T08:51:29.694Z,14.70
2022-10-23T08:56:39.997Z,15.00
2022-10-23T09:02:20.636Z,15.05
2022-10-23T09:07:45.685Z,15.02
2022-10-23T09:12:49.690Z,15.10
2022-10-23T09:17:59.723Z,15.21
2022-10-23T09:23:25.064Z,15.23
2022-10-23T09:28:32.660Z,15.25
2022-10-23T09:33:40.943Z,15.43
2022-10-23T09:38:50.246Z,15.84
2022-10-23T09:44:02.547Z,16.04
2022-10-23T09:49:08.140Z,16.06
2022-10-23T09:54:17.202Z,16.09
2022-10-23T09:59:33.172Z,16.12
2022-10-23T10:04:40.764Z,15.95
2022-10-23T10:09:45.857Z,15.81
2022-10-23T10:15:02.546Z,15.68
2022-10-23T10:20:19.731Z,15.72
2022-10-23T10:25:35.032Z,15.80
2022-10-23T10:31:12.013Z,15.84
2022-10-23T10:36:31.007Z,15.74
2022-10-23T10:41:36.147Z,15.67
2022-10-23T10:46:45.869Z,15.66
2022-10-23T10:52:14.147Z,15.73
2022-10-23T10:57:31.459Z,15.78
2022-10-23T11:02:41.998Z,15.82
2022-10-23T11:07:59.605Z,15.80
2022-10-23T11:13:03.174Z,15.82
2022-10-23T11:18:16.354Z,15.79
2022-10-23T11:23:47.473Z,15.70
2022-10-23T11:28:59.089Z,15.80
2022-10-23T11:34:14.490Z,15.96
2022-10-23T11:39:23.112Z,16.04
2022-10-23T11:44:40.312Z,16.15
2022-10-23T11:49:43.801Z,16.27
2022-10-23T11:54:48.752Z,16.36
2022-10-23T11:59:57.709Z,16.45
2022-10-23T12:05:06.429Z,16.43
2022-10-23T12:10:34.579Z,16.45
2022-10-23T12:15:38.853Z,16.44
2022-10-23T12:20:58.617Z,16.54
2022-10-23T12:26:23.846Z,16.73
2022-10-23T12:31:47.874Z,17.01
2022-10-23T12:36:54.614Z,17.38
2022-10-23T12:42:00.057Z,17.61
2022-10-23T12:47:05.698Z,17.62
2022-10-23T12:52:21.717Z,17.56
2022-10-23T12:57:27.093Z,17.36
2022-10-23T13:02:32.829Z,17.22
2022-10-23T13:07:41.459Z,17.09
2022-10-23T13:12:53.630Z,16.92
2022-10-23T13:17:56.969Z,16.99
2022-10-23T13:23:25.469Z,16.93
2022-10-23T13:28:33.926Z,17.01
2022-10-23T13:33:44.758Z,17.11
2022-10-23T13:39:00.656Z,17.18
2022-10-23T13:44:04.649Z,17.26
2022-10-23T13:49:08.202Z,17.19
2022-10-23T13:54:18.345Z,17.11
2022-10-23T13:59:22.380Z,17.03
2022-10-23T14:04:27.561Z,17.01
2022-10-23T14:09:31.881Z,17.01
2022-10-23T14:14:35.251Z,17.04
2022-10-23T14:19:45.267Z,17.00
2022-10-23T14:24:48.882Z,16.96
2022-10-23T14:29:52.435Z,16.92
2022-10-23T14:34:56.763Z,16.88
2022-10-23T14:40:01.033Z,16.84
2022-10-23T14:45:06.353Z,16.78
2022-10-23T14:50:13.269Z,16.74
2022-10-23T14:55:18.328Z,16.66
2022-10-23T15:00:24.817Z,16.52
2022-10-23T15:05:29.382Z,16.38
2022-10-23T15:10:34.336Z,16.24
2022-10-23T15:15:39.565Z,16.06
2022-10-23T15:20:54.728Z,15.85
2022-10-23T15:25:59.818Z,15.64
2022-10-23T15:31:04.209Z,15.39
2022-10-23T15:36:08.052Z,15.13
2022-10-23T15:41:16.819Z,14.81
2022-10-23T15:46:22.077Z,14.62
2022-10-23T15:51:26.558Z,14.45
2022-10-23T15:56:30.173Z,14.30
2022-10-23T16:01:33.609Z,14.08
2022-10-23T16:06:37.880Z,13.87
2022-10-23T16:11:43.078Z,13.72
2022-10-23T16:16:47.660Z,13.58
2022-10-23T16:21:51.553Z,13.43
2022-10-23T16:26:58.572Z,13.29
2022-10-23T16:32:04.702Z,13.16
2022-10-23T16:37:08.722Z,12.94
2022-10-23T16:42:12.865Z,12.67
2022-10-23T16:47:16.462Z,12.48
2022-10-23T16:52:20.646Z,12.32
2022-10-23T16:57:28.624Z,12.25
2022-10-23T17:02:32.869Z,12.29
2022-10-23T17:07:39.264Z,12.29
2022-10-23T17:12:43.122Z,12.18
2022-10-23T17:17:47.517Z,12.00
2022-10-23T17:22:51.517Z,11.77
2022-10-23T17:27:57.446Z,11.62
2022-10-23T17:33:02.210Z,11.54
2022-10-23T17:38:07.401Z,11.44
2022-10-23T17:43:13.519Z,11.24
2022-10-23T17:48:18.218Z,11.00
2022-10-23T17:53:23.402Z,10.89
2022-10-23T17:58:29.762Z,10.79
2022-10-23T18:03:37.686Z,10.76
2022-10-23T18:08:45.632Z,10.67
2022-10-23T18:13:51.394Z,10.63
2022-10-23T18:18:57.874Z,10.63
2022-10-23T18:24:03.974Z,10.55
2022-10-23T18:29:10.439Z,10.46
2022-10-23T18:34:24.301Z,10.30
2022-10-23T18:39:30.745Z,10.14
2022-10-23T18:44:45.984Z,10.06
2022-10-23T18:49:53.106Z,10.00
2022-10-23T18:55:01.733Z,9.94
2022-10-23T19:00:10.441Z,9.90
2022-10-23T19:05:17.405Z,9.90
2022-10-23T19:10:26.069Z,9.94
2022-10-23T19:15:36.894Z,9.86
2022-10-23T19:20:44.346Z,9.87
2022-10-23T19:25:52.594Z,9.81
2022-10-23T19:30:58.008Z,9.86
2022-10-23T19:36:06.518Z,9.83
2022-10-23T19:41:13.173Z,9.67
2022-10-23T19:46:18.496Z,9.54
2022-10-23T19:51:24.697Z,9.47
2022-10-23T19:56:29.715Z,9.40
2022-10-23T20:01:36.202Z,9.32
2022-10-23T20:06:42.023Z,9.25
2022-10-23T20:11:53.214Z,9.15
2022-10-23T20:16:59.034Z,9.05
2022-10-23T20:22:03.793Z,9.05
2022-10-23T20:27:10.316Z,9.15
2022-10-23T20:32:15.078Z,9.34
2022-10-23T20:37:18.922Z,9.50
2022-10-23T20:42:23.085Z,9.66
2022-10-23T20:47:29.073Z,9.79
2022-10-23T20:57:43.375Z,10.06
2022-10-23T21:02:51.448Z,10.15
2022-10-23T21:07:56.686Z,10.23
2022-10-23T21:13:00.379Z,10.28
2022-10-23T21:18:13.289Z,10.37
2022-10-23T21:23:29.113Z,10.50
2022-10-23T21:28:33.193Z,10.68
2022-10-23T21:33:37.484Z,10.72
2022-10-23T21:38:41.474Z,10.64
2022-10-23T21:43:45.022Z,10.59
2022-10-23T21:48:48.915Z,10.59
2022-10-23T21:53:54.328Z,10.58
2022-10-23T21:59:00.138Z,10.52
2022-10-23T22:04:03.488Z,10.47
2022-10-23T22:09:08.142Z,10.51
2022-10-23T22:14:11.749Z,10.46
2022-10-23T22:19:17.438Z,10.38
2022-10-23T22:24:21.045Z,10.39
2022-10-23T22:29:28.376Z,10.44
2022-10-23T22:34:51.783Z,10.50
2022-10-23T22:39:55.384Z,10.52
2022-10-23T22:44:58.754Z,10.60
2022-10-23T22:50:02.122Z,10.68
2022-10-23T22:55:06.429Z,10.75
2022-10-23T23:00:10.288Z,10.80
2022-10-23T23:05:14.355Z,10.83
2022-10-23T23:10:18.077Z,10.86
2022-10-23T23:15:21.455Z,10.82
2022-10-23T23:20:25.030Z,10.76
2022-10-23T23:25:31.541Z,10.76
2022-10-23T23:30:35.731Z,10.72
2022-10-23T23:35:45.083Z,10.73
2022-10-23T23:40:54.255Z,10.70
2022-10-23T23:45:58.722Z,10.61
2022-10-23T23:51:02.666Z,10.53
2022-10-23T23:56:06.927Z,10.43
